createdAt,value
2017-10-28T00:01:43.450Z,2.00
2017-10-28T00:04:18.182Z,1.47
2017-10-28T00:06:53.214Z,1.87
2017-10-28T00:09:28.036Z,1.73
2017-10-28T00:12:02.759Z,1.70
2017-10-28T00:14:37.423Z,1.90
2017-10-28T00:17:12.163Z,1.33
2017-10-28T00:19:46.882Z,1.90
2017-10-28T00:22:21.591Z,1.77
2017-10-28T00:24:56.339Z,1.40
2017-10-28T00:27:31.051Z,1.60
2017-10-28T00:30:10.454Z,1.40
2017-10-28T00:32:50.583Z,1.47
2017-10-28T00:35:30.459Z,1.47
2017-10-28T00:38:05.362Z,0.97
2017-10-28T00:40:39.939Z,1.50
2017-10-28T00:43:14.971Z,1.50
2017-10-28T00:45:49.788Z,1.00
2017-10-28T00:48:24.804Z,1.70
2017-10-28T00:51:01.163Z,1.50
2017-10-28T00:53:35.781Z,1.60
2017-10-28T00:56:11.480Z,1.73
2017-10-28T00:58:46.216Z,2.03
2017-10-28T01:01:20.986Z,1.47
2017-10-28T01:03:55.723Z,1.70
2017-10-28T01:06:30.335Z,1.40
2017-10-28T01:09:04.386Z,1.30
2017-10-28T01:11:39.351Z,2.17
2017-10-28T01:14:14.035Z,1.90
2017-10-28T01:16:48.714Z,1.57
2017-10-28T01:19:22.994Z,1.47
2017-10-28T01:21:58.102Z,1.50
2017-10-28T01:24:32.378Z,1.87
2017-10-28T01:27:06.987Z,3.17
2017-10-28T01:29:41.974Z,3.80
2017-10-28T01:32:16.503Z,2.03
2017-10-28T01:34:51.391Z,1.70
2017-10-28T01:37:26.018Z,2.00
2017-10-28T01:40:00.821Z,2.00
2017-10-28T01:42:35.548Z,1.50
2017-10-28T01:45:11.486Z,2.30
2017-10-28T01:47:46.758Z,1.70
2017-10-28T01:50:22.386Z,1.60
2017-10-28T01:52:57.086Z,1.60
2017-10-28T01:55:31.895Z,1.80
2017-10-28T01:58:06.522Z,2.13
2017-10-28T02:00:41.378Z,1.60
2017-10-28T02:03:16.131Z,2.07
2017-10-28T02:05:50.966Z,2.07
2017-10-28T02:08:25.640Z,1.50
2017-10-28T02:11:00.330Z,1.67
2017-10-28T02:13:34.895Z,1.90
2017-10-28T02:16:09.560Z,2.00
2017-10-28T02:18:45.370Z,1.90
2017-10-28T02:21:20.135Z,1.60
2017-10-28T02:23:54.612Z,1.30
2017-10-28T02:26:29.502Z,1.40
2017-10-28T02:29:04.138Z,1.93
2017-10-28T02:31:38.817Z,1.50
2017-10-28T02:34:14.098Z,1.10
2017-10-28T02:36:48.888Z,1.30
2017-10-28T02:39:24.529Z,1.40
2017-10-28T02:41:59.075Z,1.17
2017-10-28T02:44:33.748Z,1.40
2017-10-28T02:47:08.167Z,1.43
2017-10-28T02:49:43.344Z,1.10
2017-10-28T02:52:18.910Z,1.43
2017-10-28T02:54:53.638Z,0.97
2017-10-28T02:57:29.519Z,1.40
2017-10-28T03:00:04.574Z,1.37
2017-10-28T03:02:40.695Z,1.40
2017-10-28T03:05:15.311Z,1.10
2017-10-28T03:07:50.014Z,1.77
2017-10-28T03:10:24.390Z,1.40
2017-10-28T03:12:59.294Z,1.57
2017-10-28T03:15:33.919Z,1.20
2017-10-28T03:18:08.219Z,0.97
2017-10-28T03:20:43.079Z,1.03
2017-10-28T03:23:17.783Z,1.07
2017-10-28T03:25:53.095Z,1.10
2017-10-28T03:28:28.064Z,1.33
2017-10-28T03:31:03.636Z,1.23
2017-10-28T03:33:38.535Z,1.00
2017-10-28T03:36:13.286Z,1.30
2017-10-28T03:38:47.721Z,1.13
2017-10-28T03:41:22.531Z,1.47
2017-10-28T03:43:57.184Z,0.97
2017-10-28T03:46:31.712Z,1.53
2017-10-28T03:49:06.425Z,1.00
2017-10-28T03:51:41.120Z,1.50
2017-10-28T03:54:15.871Z,1.10
2017-10-28T03:56:50.601Z,1.13
2017-10-28T03:59:25.239Z,1.20
2017-10-28T04:01:59.975Z,0.93
2017-10-28T04:04:36.623Z,1.20
2017-10-28T04:07:11.336Z,1.47
2017-10-28T04:09:47.085Z,1.73
2017-10-28T04:12:21.724Z,1.17
2017-10-28T04:14:57.367Z,1.20
2017-10-28T04:17:32.124Z,0.87
2017-10-28T04:20:06.819Z,1.27
2017-10-28T04:22:41.474Z,1.10
2017-10-28T04:25:16.166Z,1.23
2017-10-28T04:27:51.010Z,0.97
2017-10-28T04:30:25.742Z,2.17
2017-10-28T04:33:00.471Z,1.20
2017-10-28T04:35:35.134Z,1.20
2017-10-28T04:38:09.511Z,1.40
2017-10-28T04:40:44.521Z,1.57
2017-10-28T04:43:19.083Z,1.73
2017-10-28T04:45:54.822Z,1.30
2017-10-28T04:48:29.463Z,1.57
2017-10-28T04:51:05.216Z,1.83
2017-10-28T04:53:39.828Z,1.20
2017-10-28T04:56:14.547Z,1.97
2017-10-28T04:58:49.122Z,2.10
2017-10-28T05:01:23.850Z,1.80
2017-10-28T05:03:58.660Z,2.07
2017-10-28T05:06:33.031Z,1.90
2017-10-28T05:09:07.814Z,2.00
2017-10-28T05:11:42.356Z,2.30
2017-10-28T05:14:16.602Z,2.47
2017-10-28T05:16:51.499Z,2.30
2017-10-28T05:19:26.611Z,2.30
2017-10-28T05:22:01.328Z,2.30
2017-10-28T05:24:35.872Z,3.40
2017-10-28T05:27:11.439Z,4.23
2017-10-28T05:29:45.906Z,3.17
2017-10-28T05:32:20.611Z,3.60
2017-10-28T05:34:55.323Z,2.57
2017-10-28T05:37:30.124Z,2.73
2017-10-28T05:40:04.954Z,3.13
2017-10-28T05:42:39.326Z,3.30
2017-10-28T05:45:14.090Z,3.60
2017-10-28T05:47:49.335Z,3.93
2017-10-28T05:50:24.001Z,4.40
2017-10-28T05:52:59.039Z,4.40
2017-10-28T05:55:33.727Z,4.53
2017-10-28T05:58:08.431Z,3.70
2017-10-28T06:00:43.758Z,3.73
2017-10-28T06:03:18.508Z,4.50
2017-10-28T06:05:53.490Z,4.83
2017-10-28T06:08:28.317Z,3.17
2017-10-28T06:11:02.927Z,3.67
2017-10-28T06:13:37.675Z,4.10
2017-10-28T06:16:12.394Z,4.70
2017-10-28T06:18:47.323Z,4.77
2017-10-28T06:21:22.061Z,4.27
2017-10-28T06:23:56.411Z,5.80
2017-10-28T06:26:31.384Z,5.10
2017-10-28T06:29:07.152Z,5.03
2017-10-28T06:31:41.880Z,6.13
2017-10-28T06:34:16.530Z,7.43
2017-10-28T06:36:51.127Z,7.03
2017-10-28T06:39:25.966Z,5.77
2017-10-28T06:42:00.719Z,6.57
2017-10-28T06:44:37.395Z,6.23
2017-10-28T06:47:13.031Z,7.07
2017-10-28T06:49:47.770Z,6.80
2017-10-28T06:52:22.610Z,5.67
2017-10-28T06:54:57.434Z,6.13
2017-10-28T06:57:32.167Z,6.43
2017-10-28T07:00:06.882Z,7.87
2017-10-28T07:02:41.710Z,7.50
2017-10-28T07:05:17.482Z,6.50
2017-10-28T07:07:52.778Z,7.43
2017-10-28T07:10:27.734Z,5.97
2017-10-28T07:13:02.497Z,7.43
2017-10-28T07:15:37.303Z,7.47
2017-10-28T07:18:13.152Z,8.00
2017-10-28T07:20:47.959Z,6.47
2017-10-28T07:23:22.692Z,7.10
2017-10-28T07:25:58.287Z,7.00
2017-10-28T07:28:32.999Z,7.60
2017-10-28T07:31:07.744Z,6.90
2017-10-28T07:33:42.455Z,6.83
2017-10-28T07:36:17.246Z,5.37
2017-10-28T07:38:52.008Z,7.00
2017-10-28T07:41:26.747Z,5.30
2017-10-28T07:44:00.847Z,6.83
2017-10-28T07:46:36.644Z,7.10
2017-10-28T07:49:11.329Z,7.37
2017-10-28T07:51:46.224Z,7.20
2017-10-28T07:54:20.882Z,8.00
2017-10-28T07:56:55.845Z,8.10
2017-10-28T07:59:30.655Z,7.93
2017-10-28T08:02:04.936Z,8.30
2017-10-28T08:04:39.899Z,8.03
2017-10-28T08:07:14.934Z,7.50
2017-10-28T08:09:49.577Z,7.00
2017-10-28T08:12:25.263Z,6.50
2017-10-28T08:14:59.938Z,7.90
2017-10-28T08:17:34.983Z,7.43
2017-10-28T08:20:09.721Z,8.77
2017-10-28T08:22:44.447Z,6.90
2017-10-28T08:25:19.159Z,6.37
2017-10-28T08:27:54.030Z,7.00
2017-10-28T08:30:29.648Z,5.47
2017-10-28T08:33:04.322Z,4.50
2017-10-28T08:35:38.903Z,6.67
2017-10-28T08:38:13.650Z,5.70
2017-10-28T08:40:48.357Z,6.90
2017-10-28T08:43:23.180Z,6.63
2017-10-28T08:45:57.598Z,6.20
2017-10-28T08:48:32.990Z,7.23
2017-10-28T08:51:07.031Z,6.10
2017-10-28T08:53:41.499Z,6.27
2017-10-28T08:56:16.622Z,6.40
2017-10-28T08:58:51.351Z,6.73
2017-10-28T09:01:25.867Z,5.70
2017-10-28T09:04:00.667Z,5.27
2017-10-28T09:06:35.247Z,6.17
2017-10-28T09:09:10.060Z,3.57
2017-10-28T09:11:44.355Z,5.00
2017-10-28T09:14:19.351Z,5.20
2017-10-28T09:16:54.319Z,5.53
2017-10-28T09:19:28.803Z,5.20
2017-10-28T09:22:03.445Z,4.63
2017-10-28T09:24:38.166Z,4.27
2017-10-28T09:27:12.930Z,5.00
2017-10-28T09:29:47.924Z,5.20
2017-10-28T09:32:22.739Z,4.13
2017-10-28T09:34:57.334Z,4.73
2017-10-28T09:37:32.106Z,4.00
2017-10-28T09:40:06.828Z,4.30
2017-10-28T09:42:41.567Z,5.27
2017-10-28T09:45:16.374Z,4.60
2017-10-28T09:47:50.907Z,4.43
2017-10-28T09:50:25.415Z,4.57
2017-10-28T09:53:00.112Z,2.93
2017-10-28T09:55:34.693Z,4.00
2017-10-28T09:58:09.487Z,4.50
2017-10-28T10:00:44.224Z,4.30
2017-10-28T10:03:19.091Z,3.27
2017-10-28T10:05:54.127Z,3.53
2017-10-28T10:08:29.866Z,3.80
2017-10-28T10:11:04.791Z,4.57
2017-10-28T10:13:39.339Z,3.87
2017-10-28T10:16:14.071Z,3.33
2017-10-28T10:18:48.841Z,2.80
2017-10-28T10:21:24.712Z,4.47
2017-10-28T10:23:59.863Z,3.60
2017-10-28T10:26:34.780Z,3.10
2017-10-28T10:29:10.379Z,4.83
2017-10-28T10:31:45.080Z,3.57
2017-10-28T10:34:19.559Z,3.50
2017-10-28T10:36:55.443Z,3.73
2017-10-28T10:39:31.035Z,2.40
2017-10-28T10:42:05.655Z,2.90
2017-10-28T10:44:40.490Z,2.73
2017-10-28T10:47:14.954Z,3.50
2017-10-28T10:49:49.740Z,3.10
2017-10-28T10:52:25.362Z,4.40
2017-10-28T10:55:00.311Z,3.30
2017-10-28T10:57:35.142Z,3.60
2017-10-28T11:00:10.142Z,4.30
2017-10-28T11:02:44.238Z,3.87
2017-10-28T11:05:19.219Z,3.77
2017-10-28T11:07:53.763Z,4.10
2017-10-28T11:10:28.510Z,3.63
2017-10-28T11:13:03.766Z,3.10
2017-10-28T11:15:38.516Z,3.23
2017-10-28T11:18:13.251Z,4.27
2017-10-28T11:20:48.201Z,3.50
2017-10-28T11:23:22.946Z,3.53
2017-10-28T11:25:57.803Z,3.50
2017-10-28T11:28:32.487Z,3.87
2017-10-28T11:31:07.011Z,5.17
2017-10-28T11:33:41.491Z,4.80
2017-10-28T11:36:16.438Z,4.90
2017-10-28T11:38:51.303Z,3.13
2017-10-28T11:41:26.682Z,5.10
2017-10-28T11:44:01.660Z,4.33
2017-10-28T11:46:36.398Z,4.30
2017-10-28T11:49:11.138Z,2.50
2017-10-28T11:51:46.050Z,4.60
2017-10-28T11:54:20.605Z,4.30
2017-10-28T11:56:55.320Z,5.00
2017-10-28T11:59:30.010Z,6.20
2017-10-28T12:02:04.807Z,3.70
2017-10-28T12:04:39.434Z,4.87
2017-10-28T12:07:14.918Z,5.27
2017-10-28T12:09:49.683Z,4.30
2017-10-28T12:12:24.405Z,3.17
2017-10-28T12:14:59.151Z,5.37
2017-10-28T12:17:33.979Z,5.10
2017-10-28T12:20:08.531Z,5.67
2017-10-28T12:22:44.250Z,6.40
2017-10-28T12:25:18.872Z,5.43
2017-10-28T12:27:53.514Z,6.33
2017-10-28T12:30:28.310Z,4.77
2017-10-28T12:33:02.982Z,4.33
2017-10-28T12:35:37.671Z,4.97
2017-10-28T12:38:12.311Z,4.60
2017-10-28T12:40:46.928Z,4.80
2017-10-28T12:43:21.882Z,4.03
2017-10-28T12:45:56.670Z,4.87
2017-10-28T12:48:32.235Z,4.07
2017-10-28T12:51:06.970Z,4.10
2017-10-28T12:53:41.644Z,4.97
2017-10-28T12:56:16.258Z,3.80
2017-10-28T12:58:51.098Z,4.20
2017-10-28T13:01:25.727Z,3.50
2017-10-28T13:04:01.491Z,3.40
2017-10-28T13:06:35.914Z,4.60
2017-10-28T13:09:10.838Z,4.83
2017-10-28T13:11:45.519Z,3.83
2017-10-28T13:14:20.362Z,4.80
2017-10-28T13:16:55.935Z,5.37
2017-10-28T13:19:30.623Z,4.70
2017-10-28T13:22:05.434Z,4.60
2017-10-28T13:24:40.311Z,3.40
2017-10-28T13:27:15.343Z,4.77
2017-10-28T13:29:50.088Z,5.50
2017-10-28T13:32:24.822Z,5.67
2017-10-28T13:34:59.523Z,5.50
2017-10-28T13:37:34.082Z,5.03
2017-10-28T13:40:08.611Z,5.80
2017-10-28T13:42:43.359Z,4.53
2017-10-28T13:45:18.014Z,6.40
2017-10-28T13:47:52.691Z,5.50
2017-10-28T13:50:27.391Z,3.63
2017-10-28T13:53:02.024Z,4.90
2017-10-28T13:55:36.751Z,5.80
2017-10-28T13:58:11.576Z,5.10
2017-10-28T14:00:46.216Z,6.30
2017-10-28T14:03:20.923Z,5.50
2017-10-28T14:05:55.540Z,5.70
2017-10-28T14:08:30.471Z,5.53
2017-10-28T14:11:05.174Z,4.50
2017-10-28T14:13:40.071Z,5.30
2017-10-28T14:16:14.759Z,5.27
2017-10-28T14:18:49.511Z,6.10
2017-10-28T14:21:24.067Z,4.00
2017-10-28T14:23:58.835Z,4.83
2017-10-28T14:26:33.707Z,5.60
2017-10-28T14:29:08.505Z,4.67
2017-10-28T14:31:43.428Z,5.83
2017-10-28T14:34:18.122Z,6.20
2017-10-28T14:36:52.899Z,5.20
2017-10-28T14:39:27.439Z,5.70
2017-10-28T14:42:02.887Z,5.00
2017-10-28T14:44:37.527Z,4.73
2017-10-28T14:47:12.255Z,5.40
2017-10-28T14:49:48.174Z,5.50
2017-10-28T14:52:22.795Z,5.33
2017-10-28T14:54:57.435Z,6.23
2017-10-28T14:57:32.127Z,5.17
2017-10-28T15:00:06.891Z,4.77
2017-10-28T15:02:41.655Z,4.97
2017-10-28T15:05:16.188Z,6.00
2017-10-28T15:07:51.067Z,5.63
2017-10-28T15:10:25.839Z,4.40
2017-10-28T15:13:00.376Z,6.87
2017-10-28T15:15:34.935Z,5.50
2017-10-28T15:18:09.670Z,5.40
2017-10-28T15:20:44.387Z,5.00
2017-10-28T15:23:19.143Z,4.37
2017-10-28T15:25:53.800Z,3.90
2017-10-28T15:28:28.567Z,4.80
2017-10-28T15:31:03.370Z,5.00
2017-10-28T15:33:38.205Z,3.80
2017-10-28T15:36:12.775Z,5.63
2017-10-28T15:38:47.687Z,4.70
2017-10-28T15:41:22.344Z,4.67
2017-10-28T15:43:57.135Z,5.27
2017-10-28T15:46:31.847Z,4.90
2017-10-28T15:49:06.570Z,4.13
2017-10-28T15:51:41.271Z,4.67
2017-10-28T15:54:15.899Z,5.33
2017-10-28T15:56:50.712Z,4.93
2017-10-28T15:59:25.407Z,5.83
2017-10-28T16:02:00.057Z,5.90
2017-10-28T16:04:35.002Z,6.10
2017-10-28T16:07:09.719Z,6.37
2017-10-28T16:09:44.505Z,7.00
2017-10-28T16:12:19.299Z,5.50
2017-10-28T16:14:53.882Z,5.40
2017-10-28T16:17:28.633Z,8.33
2017-10-28T16:20:03.419Z,8.07
2017-10-28T16:22:38.215Z,4.67
2017-10-28T16:25:12.984Z,6.57
2017-10-28T16:27:47.695Z,10.10
2017-10-28T16:30:22.430Z,7.60
2017-10-28T16:32:57.440Z,8.13
2017-10-28T16:35:31.839Z,9.80
2017-10-28T16:38:06.758Z,9.10
2017-10-28T16:40:41.634Z,9.90
2017-10-28T16:43:16.323Z,10.03
2017-10-28T16:45:51.030Z,10.70
2017-10-28T16:48:25.496Z,8.77
2017-10-28T16:51:01.475Z,9.50
2017-10-28T16:53:36.090Z,9.30
2017-10-28T16:56:11.032Z,7.93
2017-10-28T16:58:45.828Z,8.20
2017-10-28T17:01:20.618Z,10.30
2017-10-28T17:03:55.302Z,9.83
2017-10-28T17:06:30.049Z,9.33
2017-10-28T17:09:04.584Z,10.70
2017-10-28T17:11:40.391Z,6.37
2017-10-28T17:14:15.079Z,8.37
2017-10-28T17:16:49.932Z,8.30
2017-10-28T17:19:24.678Z,10.57
2017-10-28T17:21:59.426Z,9.27
2017-10-28T17:24:35.284Z,9.80
2017-10-28T17:27:10.239Z,10.20
2017-10-28T17:29:45.059Z,9.40
2017-10-28T17:32:19.998Z,8.90
2017-10-28T17:34:55.158Z,9.73
2017-10-28T17:37:29.573Z,10.17
2017-10-28T17:40:04.127Z,7.50
2017-10-28T17:42:38.964Z,10.97
2017-10-28T17:45:14.516Z,8.67
2017-10-28T17:47:49.638Z,10.00
2017-10-28T17:50:23.794Z,6.67
2017-10-28T17:52:58.797Z,8.50
2017-10-28T17:55:33.722Z,9.90
2017-10-28T17:58:10.327Z,11.00
2017-10-28T18:00:45.051Z,11.73
2017-10-28T18:03:19.996Z,8.80
2017-10-28T18:05:54.643Z,10.63
2017-10-28T18:08:29.279Z,8.13
2017-10-28T18:11:03.805Z,9.10
2017-10-28T18:13:38.461Z,10.07
2017-10-28T18:16:13.170Z,9.70
2017-10-28T18:18:47.995Z,9.50
2017-10-28T18:21:22.715Z,7.10
2017-10-28T18:23:58.119Z,8.93
2017-10-28T18:26:32.983Z,7.13
2017-10-28T18:29:07.604Z,8.00
2017-10-28T18:31:42.215Z,8.70
2017-10-28T18:34:17.007Z,8.13
2017-10-28T18:36:51.710Z,7.90
2017-10-28T18:39:26.629Z,9.30
2017-10-28T18:42:01.483Z,7.00
2017-10-28T18:44:36.126Z,7.67
2017-10-28T18:47:10.750Z,7.93
2017-10-28T18:49:45.578Z,7.70
2017-10-28T18:52:20.182Z,6.57
2017-10-28T18:54:55.155Z,7.10
2017-10-28T18:57:29.147Z,7.00
2017-10-28T19:00:03.863Z,6.10
2017-10-28T19:02:39.175Z,6.50
2017-10-28T19:05:14.174Z,6.63
2017-10-28T19:07:49.098Z,6.23
2017-10-28T19:10:23.690Z,6.40
2017-10-28T19:12:58.619Z,5.60
2017-10-28T19:15:33.199Z,2.87
2017-10-28T19:18:07.655Z,5.50
2017-10-28T19:20:42.266Z,5.27
2017-10-28T19:23:17.831Z,4.47
2017-10-28T19:25:53.490Z,4.73
2017-10-28T19:28:28.131Z,3.53
2017-10-28T19:31:02.760Z,4.20
2017-10-28T19:33:37.386Z,4.20
2017-10-28T19:36:11.907Z,4.80
2017-10-28T19:38:46.799Z,4.20
2017-10-28T19:41:21.819Z,4.60
2017-10-28T19:43:56.568Z,4.10
2017-10-28T19:46:31.433Z,4.23
2017-10-28T19:49:06.265Z,3.80
2017-10-28T19:51:41.063Z,3.40
2017-10-28T19:54:15.695Z,4.40
2017-10-28T19:56:50.211Z,4.10
2017-10-28T19:59:25.090Z,3.97
2017-10-28T20:01:59.792Z,3.93
2017-10-28T20:04:34.557Z,3.70
2017-10-28T20:07:09.455Z,4.30
2017-10-28T20:09:45.243Z,4.77
2017-10-28T20:12:19.835Z,4.70
2017-10-28T20:14:54.562Z,5.20
2017-10-28T20:17:29.183Z,4.77
2017-10-28T20:20:03.920Z,4.70
2017-10-28T20:22:38.360Z,4.43
2017-10-28T20:25:13.355Z,5.57
2017-10-28T20:27:48.176Z,5.20
2017-10-28T20:30:23.014Z,5.53
2017-10-28T20:32:58.034Z,6.10
2017-10-28T20:35:33.322Z,5.20
2017-10-28T20:38:07.955Z,6.37
2017-10-28T20:40:42.366Z,6.80
2017-10-28T20:43:17.178Z,5.50
2017-10-28T20:45:51.778Z,6.67
2017-10-28T20:48:26.549Z,6.90
2017-10-28T20:51:01.363Z,7.50
2017-10-28T20:53:37.255Z,7.57
2017-10-28T20:56:12.097Z,7.07
2017-10-28T20:58:46.959Z,7.03
2017-10-28T21:01:21.803Z,4.63
2017-10-28T21:03:56.493Z,6.27
2017-10-28T21:06:31.111Z,5.83
2017-10-28T21:09:05.115Z,7.17
2017-10-28T21:11:40.190Z,4.53
2017-10-28T21:14:15.064Z,4.47
2017-10-28T21:16:49.982Z,7.10
2017-10-28T21:19:24.791Z,6.80
2017-10-28T21:22:00.492Z,7.60
2017-10-28T21:24:36.695Z,5.60
2017-10-28T21:27:11.991Z,4.93
2017-10-28T21:29:46.630Z,7.27
2017-10-28T21:32:21.415Z,5.40
2017-10-28T21:34:55.987Z,6.10
2017-10-28T21:37:30.774Z,6.73
2017-10-28T21:40:05.619Z,6.57
2017-10-28T21:42:40.424Z,6.70
2017-10-28T21:45:15.233Z,5.27
2017-10-28T21:47:49.908Z,5.13
2017-10-28T21:50:24.671Z,6.43
2017-10-28T21:52:59.686Z,6.43
2017-10-28T21:55:34.594Z,5.47
2017-10-28T21:58:09.305Z,6.20
2017-10-28T22:00:45.780Z,7.10
2017-10-28T22:03:20.714Z,7.00
2017-10-28T22:05:56.475Z,5.03
2017-10-28T22:08:31.087Z,4.50
2017-10-28T22:11:05.449Z,6.03
2017-10-28T22:13:40.174Z,5.73
2017-10-28T22:16:14.872Z,6.13
2017-10-28T22:18:49.603Z,5.20
2017-10-28T22:21:24.311Z,3.53
2017-10-28T22:23:58.795Z,4.60
2017-10-28T22:26:33.806Z,5.80
2017-10-28T22:29:08.595Z,4.80
2017-10-28T22:31:43.368Z,4.53
2017-10-28T22:34:18.066Z,2.93
2017-10-28T22:36:52.846Z,3.97
2017-10-28T22:39:27.580Z,3.53
2017-10-28T22:42:02.219Z,3.17
2017-10-28T22:44:37.906Z,3.83
2017-10-28T22:47:12.559Z,3.30
2017-10-28T22:49:47.134Z,4.20
2017-10-28T22:52:21.912Z,3.67
2017-10-28T22:54:56.895Z,2.60
2017-10-28T22:57:30.946Z,2.67
2017-10-28T23:00:05.403Z,2.90
2017-10-28T23:02:40.404Z,2.63
2017-10-28T23:05:15.136Z,2.80
2017-10-28T23:07:49.951Z,2.20
2017-10-28T23:10:24.691Z,2.30
2017-10-28T23:12:59.459Z,2.03
2017-10-28T23:15:34.349Z,1.70
2017-10-28T23:18:09.123Z,3.13
2017-10-28T23:20:43.831Z,2.90
2017-10-28T23:23:18.550Z,3.10
2017-10-28T23:25:53.159Z,3.30
2017-10-28T23:28:28.855Z,3.73
2017-10-28T23:31:03.447Z,2.37
2017-10-28T23:33:38.187Z,5.83
2017-10-28T23:36:12.892Z,3.57
2017-10-28T23:38:47.275Z,3.80
2017-10-28T23:41:22.360Z,3.33
2017-10-28T23:43:56.855Z,2.43
2017-10-28T23:46:31.473Z,3.23
2017-10-28T23:49:06.386Z,2.40
2017-10-28T23:51:41.066Z,2.10
2017-10-28T23:54:17.021Z,2.10
2017-10-28T23:56:51.659Z,2.10
2017-10-28T23:59:27.226Z,2.50
